createdAt,value
2016-01-31T10:26:30.415Z,548
2016-01-31T10:26:48.649Z,328
2016-01-31T10:27:06.930Z,473
2016-01-31T10:27:25.230Z,532
2016-01-31T10:27:43.527Z,518
2016-01-31T10:28:01.839Z,503
2016-01-31T10:28:20.124Z,485
2016-01-31T10:28:38.421Z,473
2016-01-31T10:28:56.702Z,469
2016-01-31T10:29:15.014Z,469
2016-01-31T10:29:33.313Z,469
2016-01-31T10:29:51.626Z,472
2016-01-31T10:30:09.954Z,475
2016-01-31T10:30:28.285Z,475
2016-01-31T10:30:46.660Z,478
2016-01-31T10:31:04.972Z,487
2016-01-31T10:31:23.366Z,494
2016-01-31T10:31:41.647Z,493
2016-01-31T10:31:59.991Z,483
2016-01-31T10:32:18.335Z,472
2016-01-31T10:32:36.618Z,467
2016-01-31T10:32:54.915Z,463
2016-01-31T10:33:13.212Z,459
2016-01-31T10:33:31.527Z,460
2016-01-31T10:33:49.824Z,461
2016-01-31T10:34:08.137Z,457
2016-01-31T10:34:26.437Z,455
2016-01-31T10:34:44.781Z,454
2016-01-31T10:35:03.125Z,450
2016-01-31T10:35:21.425Z,451
2016-01-31T10:35:39.737Z,453
2016-01-31T10:35:58.050Z,460
2016-01-31T10:36:16.378Z,458
2016-01-31T10:36:34.677Z,455
2016-01-31T10:36:52.974Z,454
2016-01-31T10:37:11.255Z,454
2016-01-31T10:37:29.570Z,457
2016-01-31T10:37:47.899Z,465
2016-01-31T10:38:06.195Z,473
2016-01-31T10:38:24.479Z,477
2016-01-31T10:38:42.838Z,476
2016-01-31T10:39:01.104Z,473
2016-01-31T10:39:19.388Z,465
2016-01-31T10:39:37.654Z,455
2016-01-31T10:39:55.950Z,451
2016-01-31T10:40:14.216Z,447
2016-01-31T10:40:32.485Z,451
2016-01-31T10:40:50.750Z,456
2016-01-31T10:41:09.047Z,512
2016-01-31T10:41:27.378Z,468
2016-01-31T10:41:45.613Z,471
2016-01-31T10:42:03.925Z,483
2016-01-31T10:42:22.194Z,494
2016-01-31T10:42:40.459Z,502
2016-01-31T10:42:58.741Z,505
2016-01-31T10:43:17.038Z,512
2016-01-31T10:43:35.336Z,523
2016-01-31T10:43:53.618Z,536
2016-01-31T10:44:11.899Z,545
2016-01-31T10:44:30.168Z,550
2016-01-31T10:44:48.511Z,547
2016-01-31T10:45:06.793Z,544
2016-01-31T10:45:24.925Z,538
2016-01-31T10:45:43.206Z,532
2016-01-31T10:46:01.487Z,531
2016-01-31T10:46:19.784Z,533
2016-01-31T10:46:38.067Z,541
2016-01-31T10:46:56.364Z,548
2016-01-31T10:47:14.645Z,551
2016-01-31T10:47:32.976Z,553
2016-01-31T10:47:51.258Z,555
2016-01-31T10:48:09.539Z,555
2016-01-31T10:48:27.822Z,549
2016-01-31T10:48:46.088Z,545
2016-01-31T10:49:04.228Z,545
2016-01-31T10:49:22.510Z,550
2016-01-31T10:49:40.778Z,563
2016-01-31T10:49:59.093Z,566
2016-01-31T10:50:17.405Z,567
2016-01-31T10:50:35.675Z,570
2016-01-31T10:50:53.972Z,568
2016-01-31T10:51:12.237Z,562
2016-01-31T10:51:30.503Z,562
2016-01-31T10:51:48.772Z,564
2016-01-31T10:52:07.037Z,568
2016-01-31T10:52:25.318Z,577
2016-01-31T10:52:43.617Z,580
2016-01-31T10:53:01.883Z,579
2016-01-31T10:53:20.180Z,581
2016-01-31T10:53:38.477Z,576
2016-01-31T10:53:56.777Z,576
2016-01-31T10:54:15.061Z,583
2016-01-31T10:54:33.217Z,582
2016-01-31T10:54:51.517Z,569
2016-01-31T10:55:09.783Z,568
2016-01-31T10:55:28.064Z,555
2016-01-31T10:55:46.347Z,551
2016-01-31T10:56:04.628Z,551
2016-01-31T10:56:22.925Z,533
2016-01-31T10:56:41.206Z,528
2016-01-31T10:56:59.475Z,523
2016-01-31T10:57:17.756Z,521
2016-01-31T10:57:36.022Z,529
2016-01-31T10:57:54.321Z,539
2016-01-31T10:58:12.618Z,541
2016-01-31T10:58:30.899Z,540
2016-01-31T10:58:49.185Z,538
2016-01-31T10:59:07.466Z,537
2016-01-31T10:59:25.779Z,537
2016-01-31T10:59:44.044Z,539
2016-01-31T11:00:02.329Z,581
2016-01-31T11:00:20.594Z,582
2016-01-31T11:00:38.876Z,571
2016-01-31T11:00:57.178Z,589
2016-01-31T11:01:15.444Z,593
2016-01-31T11:01:33.725Z,593
2016-01-31T11:01:51.993Z,589
2016-01-31T11:02:10.290Z,539
2016-01-31T11:02:28.571Z,533
2016-01-31T11:02:46.699Z,550
2016-01-31T11:03:04.996Z,530
2016-01-31T11:03:23.277Z,532
2016-01-31T11:03:41.574Z,539
2016-01-31T11:03:59.843Z,540
2016-01-31T11:04:18.124Z,531
2016-01-31T11:04:36.405Z,520
2016-01-31T11:04:54.705Z,510
2016-01-31T11:05:13.033Z,508
2016-01-31T11:05:31.269Z,507
2016-01-31T11:05:49.553Z,494
2016-01-31T11:06:07.834Z,485
2016-01-31T11:06:26.100Z,482
2016-01-31T11:06:44.381Z,488
2016-01-31T11:07:02.681Z,499
2016-01-31T11:07:20.962Z,506
2016-01-31T11:07:39.243Z,509
2016-01-31T11:07:57.511Z,518
2016-01-31T11:08:15.792Z,521
2016-01-31T11:08:34.058Z,516
2016-01-31T11:08:52.326Z,511
2016-01-31T11:09:10.623Z,504
2016-01-31T11:09:28.905Z,496
2016-01-31T11:09:47.190Z,493
2016-01-31T11:10:05.724Z,490
2016-01-31T11:10:23.786Z,487
2016-01-31T11:10:42.099Z,489
2016-01-31T11:11:00.367Z,495
2016-01-31T11:11:18.648Z,504
2016-01-31T11:11:36.976Z,506
2016-01-31T11:11:55.260Z,498
2016-01-31T11:12:13.557Z,492
2016-01-31T11:12:31.838Z,488
2016-01-31T13:24:22.420Z,694
2016-01-31T13:24:40.701Z,450
2016-01-31T13:24:58.951Z,216
2016-01-31T13:25:17.235Z,270
2016-01-31T13:25:35.501Z,270
2016-01-31T13:25:53.782Z,261
2016-01-31T13:26:12.063Z,256
2016-01-31T13:26:30.332Z,512
2016-01-31T13:26:48.615Z,455
2016-01-31T13:27:06.928Z,446
2016-01-31T13:27:25.211Z,445
2016-01-31T13:27:43.492Z,448
2016-01-31T13:28:01.852Z,449
2016-01-31T13:28:20.167Z,450
2016-01-31T13:28:38.433Z,451
2016-01-31T13:28:56.745Z,455
2016-01-31T13:29:15.014Z,458
2016-01-31T13:29:33.405Z,464
2016-01-31T13:29:51.686Z,469
2016-01-31T13:30:09.967Z,468
2016-01-31T13:30:28.282Z,464
2016-01-31T13:30:46.563Z,461
2016-01-31T14:41:58.447Z,528
2016-01-31T14:42:17.135Z,389
2016-01-31T14:42:35.041Z,389
2016-01-31T14:42:53.341Z,390
2016-01-31T14:43:11.622Z,390
2016-01-31T14:43:29.919Z,390
2016-01-31T14:43:48.234Z,391
2016-01-31T14:44:06.719Z,393
2016-01-31T14:44:25.016Z,396
2016-01-31T14:44:43.316Z,398
2016-01-31T14:45:01.597Z,400
2016-01-31T14:45:19.878Z,401
2016-01-31T14:45:38.128Z,403
2016-01-31T14:45:56.428Z,404
2016-01-31T14:46:14.694Z,405
2016-01-31T14:46:32.976Z,407
2016-01-31T14:46:51.259Z,408
2016-01-31T14:47:09.556Z,408
2016-01-31T14:47:27.884Z,408
2016-01-31T14:47:46.121Z,408
2016-01-31T14:54:50.927Z,552
2016-01-31T14:55:09.195Z,331
2016-01-31T14:55:27.481Z,327
2016-01-31T14:55:45.762Z,326
2016-01-31T14:56:04.075Z,324
2016-01-31T14:56:22.859Z,323
2016-01-31T14:56:41.828Z,323
2016-01-31T14:56:59.734Z,322
2016-01-31T14:57:41.351Z,543
2016-01-31T14:57:59.616Z,329
2016-01-31T14:58:17.916Z,328
2016-01-31T14:58:36.197Z,328
2016-01-31T14:58:54.479Z,330
2016-01-31T14:59:12.763Z,332
2016-01-31T14:59:31.044Z,335
2016-01-31T14:59:49.310Z,337
2016-01-31T15:00:07.591Z,340
2016-01-31T15:00:25.874Z,341
2016-01-31T15:00:44.187Z,340
2016-01-31T15:01:02.468Z,339
2016-01-31T15:01:20.737Z,338
2016-01-31T15:01:39.033Z,335
2016-01-31T15:01:57.362Z,335
2016-01-31T15:02:15.490Z,333
2016-01-31T15:02:33.786Z,332
2016-01-31T15:02:52.099Z,331
2016-01-31T15:03:10.382Z,331
2016-01-31T15:03:28.507Z,331
2016-01-31T15:03:46.788Z,332
2016-01-31T15:04:05.054Z,332
2016-01-31T15:04:23.385Z,331
2016-01-31T15:04:41.651Z,332
2016-01-31T15:04:59.932Z,332
2016-01-31T15:05:18.201Z,334
2016-01-31T15:05:36.498Z,334
2016-01-31T15:05:54.779Z,333
2016-01-31T15:06:13.063Z,332
2016-01-31T15:06:31.344Z,330
2016-01-31T15:06:49.610Z,328
2016-01-31T15:07:07.876Z,327
2016-01-31T15:07:26.175Z,326
2016-01-31T15:07:44.441Z,325
2016-01-31T15:08:02.738Z,324
2016-01-31T15:08:21.052Z,325
2016-01-31T15:08:39.338Z,325
2016-01-31T15:08:57.666Z,326
2016-01-31T15:09:15.966Z,326
2016-01-31T15:09:34.247Z,326
2016-01-31T15:09:52.528Z,325
2016-01-31T15:10:10.825Z,325
2016-01-31T15:10:29.077Z,324
2016-01-31T15:10:47.378Z,323
2016-01-31T15:11:05.628Z,321
2016-01-31T15:11:23.943Z,320
2016-01-31T15:11:42.084Z,318
2016-01-31T15:12:00.365Z,317
2016-01-31T15:12:17.884Z,317
2016-01-31T15:12:36.181Z,316
2016-01-31T15:12:54.493Z,316
2016-01-31T15:13:12.790Z,316
2016-01-31T15:13:31.089Z,315
2016-01-31T15:13:49.370Z,314
2016-01-31T15:14:07.651Z,313
2016-01-31T15:14:26.014Z,312
2016-01-31T15:14:44.311Z,310
2016-01-31T15:15:02.607Z,309
2016-01-31T15:15:20.907Z,308
2016-01-31T15:15:39.282Z,307
2016-01-31T15:15:57.595Z,306
2016-01-31T15:16:15.862Z,305
2016-01-31T15:16:34.159Z,304
2016-01-31T15:16:52.487Z,304
2016-01-31T15:17:10.769Z,304
2016-01-31T15:17:29.053Z,304
2016-01-31T15:17:47.350Z,303
2016-01-31T15:18:05.631Z,302
2016-01-31T15:18:23.913Z,302
2016-01-31T15:18:42.210Z,303
2016-01-31T15:18:59.820Z,303
2016-01-31T15:19:18.095Z,302
2016-01-31T15:19:35.721Z,301
2016-01-31T15:19:54.002Z,299
2016-01-31T15:20:12.124Z,298
2016-01-31T15:20:30.398Z,296
2016-01-31T15:20:48.680Z,294
2016-01-31T15:21:06.977Z,292
2016-01-31T15:21:25.314Z,289
2016-01-31T15:21:43.580Z,287
2016-01-31T15:22:01.877Z,285
2016-01-31T15:22:20.136Z,284
2016-01-31T15:22:38.340Z,283
2016-01-31T15:22:56.636Z,283
2016-01-31T15:23:14.933Z,283
2016-01-31T15:23:33.210Z,284
2016-01-31T15:23:51.522Z,284
2016-01-31T15:24:09.803Z,285
2016-01-31T15:24:28.006Z,287
2016-01-31T15:24:46.272Z,287
2016-01-31T15:25:04.553Z,287
2016-01-31T15:25:22.834Z,287
2016-01-31T15:25:41.115Z,287
2016-01-31T15:25:59.396Z,286
2016-01-31T15:26:17.709Z,285
2016-01-31T15:26:36.006Z,283
2016-01-31T15:26:54.303Z,281
2016-01-31T15:27:12.585Z,279
2016-01-31T15:27:30.912Z,277
2016-01-31T15:27:49.177Z,276
2016-01-31T15:28:07.521Z,274
2016-01-31T15:28:25.787Z,272
2016-01-31T15:28:44.068Z,272
2016-01-31T15:29:02.349Z,271
2016-01-31T15:29:20.631Z,270
2016-01-31T15:29:38.928Z,270
2016-01-31T15:29:57.241Z,269
2016-01-31T15:30:15.522Z,269
2016-01-31T15:30:33.790Z,268
2016-01-31T15:30:52.072Z,267
2016-01-31T15:31:10.400Z,266
2016-01-31T15:31:28.683Z,265
2016-01-31T15:31:46.980Z,264
2016-01-31T15:32:05.277Z,263
2016-01-31T15:32:23.544Z,262
2016-01-31T15:32:41.840Z,261
2016-01-31T15:33:00.122Z,260
2016-01-31T15:33:18.419Z,259
2016-01-31T15:33:36.703Z,258
2016-01-31T15:33:55.000Z,257
2016-01-31T15:34:13.312Z,257
2016-01-31T15:34:31.611Z,256
2016-01-31T15:34:49.752Z,256
2016-01-31T15:35:08.018Z,251
